createdAt,value
2018-04-01T00:00:22.300Z,63.39
2018-04-01T00:01:22.295Z,63.29
2018-04-01T00:02:22.044Z,63.1
2018-04-01T00:03:22.284Z,63.48
2018-04-01T00:04:22.280Z,63.67
2018-04-01T00:05:22.026Z,63.48
2018-04-01T00:06:22.022Z,63.39
2018-04-01T00:07:22.272Z,63.29
2018-04-01T00:08:22.266Z,63.48
2018-04-01T00:09:22.256Z,63.2
2018-04-01T00:10:22.264Z,63.86
2018-04-01T00:11:22.254Z,63.67
2018-04-01T00:12:22.263Z,63.96
2018-04-01T00:13:21.994Z,64.05
2018-04-01T00:14:21.982Z,64.05
2018-04-01T00:15:22.272Z,63.96
2018-04-01T00:16:22.227Z,63.86
2018-04-01T00:17:22.230Z,64.24
2018-04-01T00:18:22.210Z,63.96
2018-04-01T00:19:21.954Z,64.15
2018-04-01T00:20:25.357Z,64.24
2018-04-01T00:21:22.199Z,64.15
2018-04-01T00:22:22.200Z,64.24
2018-04-01T00:23:21.944Z,64.15
2018-04-01T00:24:22.206Z,64.34
2018-04-01T00:25:22.184Z,64.05
2018-04-01T00:26:22.183Z,63.96
2018-04-01T00:27:21.918Z,63.96
2018-04-01T00:28:21.914Z,64.05
2018-04-01T00:29:22.159Z,64.15
2018-04-01T00:30:22.155Z,64.05
2018-04-01T00:31:22.148Z,64.24
2018-04-01T00:32:22.149Z,64.43
2018-04-01T00:33:22.142Z,64.72
2018-04-01T00:34:22.137Z,64.81
2018-04-01T00:35:22.140Z,64.53
2018-04-01T00:36:22.130Z,64.72
2018-04-01T00:37:22.121Z,64.53
2018-04-01T00:38:22.117Z,64.81
2018-04-01T00:39:22.115Z,65
2018-04-01T00:40:22.108Z,65.29
2018-04-01T00:41:21.847Z,65.38
2018-04-01T00:42:22.096Z,65.77
2018-04-01T00:43:22.092Z,65.48
2018-04-01T00:44:22.091Z,65.86
2018-04-01T00:45:21.828Z,65.67
2018-04-01T00:46:21.827Z,65.67
2018-04-01T00:47:22.082Z,65.67
2018-04-01T00:48:22.069Z,65.67
2018-04-01T00:49:22.075Z,65.1
2018-04-01T00:50:22.060Z,65.29
2018-04-01T00:51:22.125Z,65.19
2018-04-01T00:52:22.116Z,65.19
2018-04-01T00:53:22.035Z,65
2018-04-01T00:54:22.040Z,65.29
2018-04-01T00:55:22.031Z,64.9
2018-04-01T00:56:22.031Z,65.58
2018-04-01T00:57:22.091Z,65.86
2018-04-01T00:58:21.773Z,65.86
2018-04-01T00:59:22.031Z,66.05
2018-04-01T01:00:22.010Z,66.05
2018-04-01T01:01:22.006Z,65.95
2018-04-01T01:02:22.004Z,66.72
2018-04-01T01:03:21.993Z,66.62
2018-04-01T01:04:21.992Z,66.33
2018-04-01T01:05:21.985Z,66.81
2018-04-01T01:06:22.911Z,67.1
2018-04-01T01:07:21.724Z,67.29
2018-04-01T01:08:21.717Z,67.29
2018-04-01T01:09:21.717Z,67.57
2018-04-01T01:10:21.973Z,67.95
2018-04-01T01:11:21.958Z,67.57
2018-04-01T01:12:21.949Z,68.15
2018-04-01T01:13:21.697Z,68.24
2018-04-01T01:14:21.950Z,68.52
2018-04-01T01:15:21.944Z,68.3
2018-04-01T01:16:21.941Z,68.68
2018-04-01T01:17:21.928Z,68.77
2018-04-01T01:18:21.923Z,69.25
2018-04-01T01:19:21.665Z,69.06
2018-04-01T01:20:21.918Z,69.44
2018-04-01T01:21:22.104Z,69.63
2018-04-01T01:22:21.650Z,70.01
2018-04-01T01:23:21.941Z,70.1
2018-04-01T01:24:21.930Z,69.82
2018-04-01T01:25:21.887Z,70.1
2018-04-01T01:26:21.883Z,70.68
2018-04-01T01:27:21.877Z,70.97
2018-04-01T01:28:21.880Z,70.97
2018-04-01T01:29:21.867Z,71.63
2018-04-01T01:30:21.858Z,71.34
2018-04-01T01:31:21.905Z,71.34
2018-04-01T01:32:21.858Z,71.63
2018-04-01T01:33:21.843Z,71.91
2018-04-01T01:34:21.840Z,72.01
2018-04-01T01:35:21.835Z,72.49
2018-04-01T01:36:21.581Z,72.77
2018-04-01T01:37:21.826Z,73.06
2018-04-01T01:38:21.822Z,72.86
2018-04-01T01:39:21.563Z,73.53
2018-04-01T01:40:21.813Z,74.1
2018-04-01T01:41:21.808Z,73.82
2018-04-01T01:42:21.798Z,74.1
2018-04-01T01:43:21.544Z,74.58
2018-04-01T01:44:21.786Z,75.05
2018-04-01T01:45:21.535Z,74.96
2018-04-01T01:46:21.780Z,75.43
2018-04-01T01:47:21.528Z,75.62
2018-04-01T01:48:21.777Z,76.01
2018-04-01T01:49:21.770Z,75.91
2018-04-01T01:50:21.763Z,76.76
2018-04-01T01:51:21.499Z,76.76
2018-04-01T01:52:25.151Z,76.86
2018-04-01T01:53:21.744Z,77.34
2018-04-01T01:54:21.744Z,77.53
2018-04-01T01:55:21.483Z,78
2018-04-01T01:56:21.728Z,77.34
2018-04-01T01:57:21.719Z,78.19
2018-04-01T01:58:21.463Z,77.91
2018-04-01T01:59:21.717Z,78.86
2018-04-01T02:00:21.704Z,78.29
2018-04-01T02:01:21.535Z,78.86
2018-04-01T02:02:21.694Z,78.96
2018-04-01T02:03:21.682Z,79.14
2018-04-01T02:04:21.682Z,79.14
2018-04-01T02:05:21.430Z,79.3
2018-04-01T02:06:21.787Z,78.91
2018-04-01T02:07:21.409Z,79.2
2018-04-01T02:08:21.663Z,79.81
2018-04-01T02:09:21.655Z,79.58
2018-04-01T02:10:21.397Z,79.39
2018-04-01T02:11:21.643Z,79.39
2018-04-01T02:12:21.384Z,79.72
2018-04-01T02:13:21.631Z,79.96
2018-04-01T02:14:21.625Z,79.77
2018-04-01T02:15:21.365Z,79.77
2018-04-01T02:16:21.619Z,79.96
2018-04-01T02:17:21.611Z,80.53
2018-04-01T02:18:21.604Z,80.24
2018-04-01T02:19:21.603Z,80.15
2018-04-01T02:20:21.598Z,80.15
2018-04-01T02:21:21.584Z,80.72
2018-04-01T02:22:21.581Z,80.72
2018-04-01T02:23:21.573Z,81.01
2018-04-01T02:24:21.571Z,81.01
2018-04-01T02:25:21.568Z,81.67
2018-04-01T02:26:21.556Z,81.29
2018-04-01T02:27:21.554Z,82.15
2018-04-01T02:28:21.298Z,82.15
2018-04-01T02:29:21.288Z,81.77
2018-04-01T02:30:21.280Z,82.15
2018-04-01T02:31:21.304Z,81.96
2018-04-01T02:32:21.521Z,81.77
2018-04-01T02:33:21.519Z,82.34
2018-04-01T02:34:21.261Z,82.34
2018-04-01T02:35:21.256Z,82.43
2018-04-01T02:36:21.253Z,82.43
2018-04-01T02:37:21.496Z,82.71
2018-04-01T02:38:21.236Z,83.39
2018-04-01T02:39:21.229Z,82.91
2018-04-01T02:40:21.479Z,83.1
2018-04-01T02:41:21.472Z,83.39
2018-04-01T02:42:21.212Z,83.29
2018-04-01T02:43:21.464Z,83.19
2018-04-01T02:44:21.451Z,83
2018-04-01T02:45:21.456Z,83.39
2018-04-01T02:46:21.201Z,83.72
2018-04-01T02:47:21.439Z,83.53
2018-04-01T02:48:21.180Z,83.91
2018-04-01T02:49:21.430Z,83.72
2018-04-01T02:50:21.164Z,83.72
2018-04-01T02:51:21.415Z,84.48
2018-04-01T02:52:21.412Z,84.43
2018-04-01T02:53:22.657Z,83.91
2018-04-01T02:54:21.412Z,83.72
2018-04-01T02:55:21.453Z,84.2
2018-04-01T02:56:21.383Z,84.58
2018-04-01T02:57:21.379Z,84.58
2018-04-01T02:58:21.378Z,84.58
2018-04-01T02:59:21.109Z,84.62
2018-04-01T03:00:21.354Z,84.62
2018-04-01T03:01:21.097Z,84.72
2018-04-01T03:02:21.348Z,84.58
2018-04-01T03:03:21.337Z,84.62
2018-04-01T03:04:21.348Z,84.72
2018-04-01T03:05:21.341Z,84.24
2018-04-01T03:06:21.325Z,84.52
2018-04-01T03:07:21.321Z,84.72
2018-04-01T03:08:21.312Z,84.24
2018-04-01T03:09:21.319Z,84.62
2018-04-01T03:10:21.302Z,84.24
2018-04-01T03:11:21.299Z,84.43
2018-04-01T03:12:21.292Z,85.28
2018-04-01T03:13:21.280Z,85.47
2018-04-01T03:14:21.293Z,85.86
2018-04-01T03:15:21.017Z,86.8
2018-04-01T03:16:21.270Z,86.9
2018-04-01T03:17:21.004Z,88.04
2018-04-01T03:18:21.248Z,88.42
2018-04-01T03:19:21.291Z,88.9
2018-04-01T03:20:21.239Z,88.95
2018-04-01T03:21:20.984Z,89.42
2018-04-01T03:22:21.232Z,89.61
2018-04-01T03:23:21.227Z,90.28
2018-04-01T03:24:21.219Z,91.04
2018-04-01T03:25:21.208Z,91.13
2018-04-01T03:26:21.205Z,91.61
2018-04-01T03:27:21.198Z,92.27
2018-04-01T03:28:20.939Z,92.56
2018-04-01T03:29:21.183Z,92.94
2018-04-01T03:30:20.947Z,92.94
2018-04-01T03:31:21.176Z,92.94
2018-04-01T03:32:21.168Z,92.18
2018-04-01T03:33:20.911Z,92.37
2018-04-01T03:34:21.158Z,92.46
2018-04-01T03:35:21.149Z,92.94
2018-04-01T03:36:21.148Z,93.41
2018-04-01T03:37:21.138Z,93.41
2018-04-01T03:38:20.880Z,93.32
2018-04-01T03:39:21.131Z,92.85
2018-04-01T03:40:20.867Z,93.13
2018-04-01T03:41:21.113Z,93.79
2018-04-01T03:42:21.110Z,94.08
2018-04-01T03:43:21.101Z,95.12
2018-04-01T03:44:21.098Z,95.41
2018-04-01T03:45:21.087Z,95.6
2018-04-01T03:46:21.083Z,95.41
2018-04-01T03:47:21.077Z,95.22
2018-04-01T03:48:21.072Z,94.84
2018-04-01T03:49:21.070Z,94.74
2018-04-01T03:50:20.812Z,94.37
2018-04-01T03:51:21.066Z,93.23
2018-04-01T03:52:21.071Z,92.94
2018-04-01T03:53:21.043Z,92.27
2018-04-01T03:54:21.051Z,92.18
2018-04-01T03:55:21.040Z,91.33
2018-04-01T03:56:21.039Z,91.71
2018-04-01T03:57:21.020Z,91.89
2018-04-01T03:58:20.766Z,92.85
2018-04-01T03:59:21.010Z,93.23
2018-04-01T04:00:21.004Z,93.32
2018-04-01T04:01:20.754Z,92.46
2018-04-01T04:02:21.008Z,91.8
2018-04-01T04:03:20.989Z,91.89
2018-04-01T04:04:20.986Z,91.33
2018-04-01T04:05:20.976Z,90.19
2018-04-01T04:06:20.974Z,90.75
2018-04-01T04:07:20.971Z,91.52
2018-04-01T04:08:20.705Z,91.52
2018-04-01T04:09:20.961Z,91.61
2018-04-01T04:10:20.693Z,91.71
2018-04-01T04:11:20.949Z,91.8
2018-04-01T04:12:20.935Z,91.23
2018-04-01T04:13:20.929Z,90.94
2018-04-01T04:14:20.926Z,91.33
2018-04-01T04:15:20.921Z,91.52
2018-04-01T04:16:20.916Z,91.13
2018-04-01T04:17:20.921Z,90.94
2018-04-01T04:18:20.899Z,91.13
2018-04-01T04:19:20.643Z,90.75
2018-04-01T04:20:20.888Z,90.94
2018-04-01T04:21:20.637Z,91.33
2018-04-01T04:22:20.877Z,91.99
2018-04-01T04:23:20.877Z,92.27
2018-04-01T04:24:20.865Z,92.27
2018-04-01T04:25:20.862Z,92.37
2018-04-01T04:26:20.904Z,92.37
2018-04-01T04:27:20.849Z,91.71
2018-04-01T04:28:20.596Z,91.42
2018-04-01T04:29:20.598Z,91.61
2018-04-01T04:30:20.582Z,91.23
2018-04-01T04:31:20.839Z,91.99
2018-04-01T04:32:20.830Z,91.8
2018-04-01T04:33:20.811Z,91.71
2018-04-01T04:34:20.556Z,91.8
2018-04-01T04:35:20.809Z,92.27
2018-04-01T04:36:20.546Z,92.46
2018-04-01T04:37:20.794Z,91.71
2018-04-01T04:38:20.830Z,91.42
2018-04-01T04:39:20.785Z,91.04
2018-04-01T04:40:20.774Z,90.56
2018-04-01T04:41:20.771Z,90.28
2018-04-01T04:42:20.766Z,90.09
2018-04-01T04:43:20.756Z,90.28
2018-04-01T04:44:20.750Z,90.28
2018-04-01T04:45:20.749Z,90.28
2018-04-01T04:46:20.559Z,90.47
2018-04-01T04:47:20.744Z,90.66
2018-04-01T04:48:20.480Z,90.47
2018-04-01T04:49:20.722Z,90.37
2018-04-01T04:50:20.718Z,90.56
2018-04-01T04:51:20.713Z,90.47
2018-04-01T04:52:20.459Z,90.37
2018-04-01T04:53:20.698Z,90
2018-04-01T04:54:21.149Z,89.71
2018-04-01T04:55:20.685Z,90.28
2018-04-01T04:56:20.424Z,89.9
2018-04-01T04:57:20.426Z,90.09
2018-04-01T04:58:20.422Z,90.28
2018-04-01T04:59:20.674Z,90.09
2018-04-01T05:00:20.654Z,90.19
2018-04-01T05:01:20.415Z,89.8
2018-04-01T05:02:20.662Z,89.42
2018-04-01T05:03:20.384Z,89.33
2018-04-01T05:04:20.383Z,89.33
2018-04-01T05:05:20.631Z,88.95
2018-04-01T05:06:20.616Z,89.33
2018-04-01T05:07:20.360Z,89.33
2018-04-01T05:08:20.357Z,89.37
2018-04-01T05:09:20.649Z,89.52
2018-04-01T05:10:20.342Z,89.52
2018-04-01T05:11:20.585Z,89.71
2018-04-01T05:12:20.581Z,90
2018-04-01T05:13:20.579Z,90.19
2018-04-01T05:14:20.576Z,90.56
2018-04-01T05:15:20.571Z,89.85
2018-04-01T05:16:20.569Z,90.8
2018-04-01T05:17:20.555Z,90.52
2018-04-01T05:18:20.586Z,90.47
2018-04-01T05:19:20.546Z,90.33
2018-04-01T05:20:20.535Z,90.14
2018-04-01T05:21:20.274Z,90.42
2018-04-01T05:22:20.531Z,90.47
2018-04-01T05:23:20.519Z,90.75
2018-04-01T05:24:22.668Z,90.61
2018-04-01T05:25:20.517Z,90.56
2018-04-01T05:26:21.162Z,90.19
2018-04-01T05:27:20.246Z,90.28
2018-04-01T05:28:20.591Z,90.52
2018-04-01T05:29:20.482Z,91.23
2018-04-01T05:30:20.474Z,90.85
2018-04-01T05:31:21.410Z,91.08
2018-04-01T05:32:20.468Z,90.47
2018-04-01T05:33:20.458Z,90.75
2018-04-01T05:34:20.207Z,90.66
2018-04-01T05:35:20.445Z,90.75
2018-04-01T05:36:20.440Z,90.85
2018-04-01T05:37:20.432Z,90.28
2018-04-01T05:38:20.432Z,91.04
2018-04-01T05:39:20.422Z,90.8
2018-04-01T05:40:20.164Z,90.75
2018-04-01T05:41:20.158Z,90.47
2018-04-01T05:42:20.404Z,90.47
2018-04-01T05:43:20.400Z,90.33
2018-04-01T05:44:20.391Z,90.94
2018-04-01T05:45:20.397Z,91.04
2018-04-01T05:46:20.384Z,90.61
2018-04-01T05:47:20.123Z,90.47
2018-04-01T05:48:20.369Z,90.47
2018-04-01T05:49:20.108Z,90.28
2018-04-01T05:50:20.379Z,90.85
2018-04-01T05:51:20.354Z,90.19
2018-04-01T05:52:20.344Z,90.19
2018-04-01T05:53:20.340Z,90
2018-04-01T05:54:20.087Z,90.09
2018-04-01T05:55:20.327Z,90.85
2018-04-01T05:56:20.333Z,90.37
2018-04-01T05:57:20.068Z,90.52
2018-04-01T05:58:20.313Z,90.37
2018-04-01T05:59:20.321Z,89.8
2018-04-01T06:00:20.298Z,90.09
2018-04-01T06:01:20.291Z,90.47
2018-04-01T06:02:20.289Z,89.71
2018-04-01T06:03:20.290Z,89.61
2018-04-01T06:04:20.275Z,89.04
2018-04-01T06:05:20.269Z,89.04
2018-04-01T06:06:20.319Z,89.71
2018-04-01T06:07:20.007Z,88.9
2018-04-01T06:08:20.251Z,88.85
2018-04-01T06:09:20.245Z,89
2018-04-01T06:10:20.248Z,88.9
2018-04-01T06:11:20.241Z,88.52
2018-04-01T06:12:19.975Z,88.52
2018-04-01T06:13:20.228Z,87.95
2018-04-01T06:14:20.219Z,88.52
2018-04-01T06:23:58.326Z,87.47
2018-04-01T06:24:58.322Z,86.61
2018-04-01T06:25:58.297Z,86.33
2018-04-01T06:26:58.293Z,86.14
2018-04-01T06:27:58.348Z,85.86
2018-04-01T06:28:58.337Z,86.05
2018-04-01T06:29:58.035Z,85.95
2018-04-01T06:30:58.264Z,85.86
2018-04-01T06:31:58.246Z,85.66
2018-04-01T06:32:57.988Z,86.57
2018-04-01T06:33:59.099Z,86.76
2018-04-01T06:34:58.226Z,87.14
2018-04-01T06:35:57.976Z,87.05
2018-04-01T06:36:57.966Z,86.47
2018-04-01T06:37:57.951Z,86.29
2018-04-01T06:38:58.200Z,86.57
2018-04-01T06:39:58.308Z,87.47
2018-04-01T06:40:58.187Z,87.34
2018-04-01T06:41:58.187Z,87.28
2018-04-01T06:42:58.045Z,87.09
2018-04-01T06:43:58.974Z,86.33
2018-04-01T06:44:58.163Z,85.95
2018-04-01T06:45:58.156Z,85.28
2018-04-01T06:46:58.155Z,85.76
2018-04-01T06:47:58.144Z,85.95
2018-04-01T06:48:58.136Z,85.28
2018-04-01T06:49:58.136Z,85.57
2018-04-01T06:50:58.130Z,84.91
2018-04-01T06:51:58.126Z,85.57
2018-04-01T06:52:58.118Z,85.28
2018-04-01T06:53:57.857Z,84.72
2018-04-01T06:54:57.850Z,85.19
2018-04-01T06:55:58.101Z,85.86
2018-04-01T06:56:58.127Z,85.57
2018-04-01T06:57:58.109Z,84.24
2018-04-01T06:58:58.100Z,83.52
2018-04-01T06:59:58.076Z,82.09
2018-04-01T07:00:58.071Z,81.33
2018-04-01T07:01:58.089Z,80.86
2018-04-01T07:02:57.811Z,80.95
2018-04-01T07:03:58.063Z,80.57
2018-04-01T07:04:57.800Z,80.29
2018-04-01T07:05:58.050Z,80.19
2018-04-01T07:06:58.046Z,80.38
2018-04-01T07:07:58.045Z,80
2018-04-01T07:08:58.036Z,79.52
2018-04-01T07:09:58.032Z,80.1
2018-04-01T07:10:58.024Z,80.47
2018-04-01T07:11:58.022Z,79.81
2018-04-01T07:12:58.019Z,79.62
2018-04-01T07:13:57.763Z,79.38
2018-04-01T07:14:59.664Z,79.09
2018-04-01T07:15:58.009Z,78.71
2018-04-01T07:16:58.002Z,78.33
2018-04-01T07:17:57.741Z,79.47
2018-04-01T07:18:57.998Z,77.19
2018-04-01T07:19:57.993Z,75.6
2018-04-01T07:20:57.987Z,73.51
2018-04-01T07:21:58.383Z,72.31
2018-04-01T07:22:57.986Z,71.73
2018-04-01T07:23:57.977Z,72.41
2018-04-01T07:24:57.756Z,72.21
2018-04-01T07:25:57.714Z,72.65
2018-04-01T07:26:57.749Z,72.65
2018-04-01T07:27:57.970Z,73.03
2018-04-01T07:28:57.968Z,73.51
2018-04-01T07:29:59.762Z,73.85
2018-04-01T07:30:57.956Z,74.62
2018-04-01T07:31:57.946Z,74.71
2018-04-01T07:32:57.692Z,75.38
2018-04-01T07:33:57.686Z,75.28
2018-04-01T07:34:57.946Z,74.9
2018-04-01T07:35:57.948Z,75.67
2018-04-01T07:36:57.692Z,76.71
2018-04-01T07:37:57.927Z,78.04
2018-04-01T07:38:57.928Z,79.09
2018-04-01T07:39:57.932Z,82.23
2018-04-01T07:40:57.914Z,82.19
2018-04-01T07:41:57.921Z,83.71
2018-04-01T07:42:57.917Z,85.52
2018-04-01T07:43:57.648Z,86.38
2018-04-01T07:44:57.646Z,88.37
2018-04-01T07:45:57.662Z,89.42
2018-04-01T07:46:57.643Z,90.42
2018-04-01T07:47:57.633Z,90.99
2018-04-01T07:48:57.891Z,91.56
2018-04-01T07:49:57.625Z,93.27
2018-04-01T07:50:57.874Z,94.03
2018-04-01T07:51:57.861Z,94.6
2018-04-01T07:52:57.868Z,93.79
2018-04-01T07:53:57.858Z,93.7
2018-04-01T07:54:57.597Z,93.32
2018-04-01T07:55:57.848Z,93.79
2018-04-01T07:56:57.594Z,95.6
2018-04-01T07:57:57.595Z,95.6
2018-04-01T07:58:57.581Z,95.51
2018-04-01T07:59:57.833Z,95.98
2018-04-01T08:00:57.572Z,95.22
2018-04-01T08:01:57.816Z,94.89
2018-04-01T08:02:57.812Z,94.13
2018-04-01T08:03:57.814Z,92.41
2018-04-01T08:04:57.848Z,90.99
2018-04-01T08:05:57.799Z,91.08
2018-04-01T08:06:57.800Z,90.75
2018-04-01T08:07:57.789Z,89.42
2018-04-01T08:08:57.528Z,88.56
2018-04-01T08:09:57.776Z,87.32
2018-04-01T08:10:57.773Z,87.52
2018-04-01T08:11:57.768Z,87.42
2018-04-01T08:12:57.512Z,87.32
2018-04-01T08:13:57.762Z,86.85
2018-04-01T08:14:57.778Z,86.85
2018-04-01T08:15:57.755Z,88.18
2018-04-01T08:16:57.749Z,88.85
2018-04-01T08:17:57.491Z,90.94
2018-04-01T08:18:57.748Z,91.51
2018-04-01T08:19:57.506Z,90.47
2018-04-01T08:20:57.731Z,90.28
2018-04-01T08:21:57.728Z,90.84
2018-04-01T08:22:57.727Z,90.7
2018-04-01T08:23:57.469Z,89.51
2018-04-01T08:24:57.467Z,88.99
2018-04-01T08:25:57.728Z,88.85
2018-04-01T08:26:57.713Z,88.18
2018-04-01T08:27:57.715Z,88.79
2018-04-01T08:28:57.730Z,88.42
2018-04-01T08:29:57.710Z,88.04
2018-04-01T08:30:59.351Z,88.56
2018-04-01T08:31:57.442Z,88.85
2018-04-01T08:32:57.690Z,88.85
2018-04-01T08:33:57.690Z,89.51
2018-04-01T08:34:57.425Z,91.03
2018-04-01T08:35:57.425Z,91.42
2018-04-01T08:36:57.422Z,88.79
2018-04-01T08:37:57.669Z,88.09
2018-04-01T08:38:57.673Z,87.85
2018-04-01T08:39:57.664Z,87.18
2018-04-01T08:40:57.667Z,87.37
2018-04-01T08:41:57.663Z,86.7
2018-04-01T08:42:57.671Z,85.75
2018-04-01T08:43:57.656Z,85.94
2018-04-01T08:44:57.662Z,86.04
2018-04-01T08:45:57.395Z,85.66
2018-04-01T08:46:57.388Z,85.56
2018-04-01T08:47:57.641Z,85.47
2018-04-01T08:48:57.388Z,85.56
2018-04-01T08:49:57.626Z,86.04
2018-04-01T08:50:57.625Z,85.47
2018-04-01T08:51:57.621Z,83.94
2018-04-01T08:52:57.625Z,84.7
2018-04-01T08:53:57.611Z,84.8
2018-04-01T08:54:57.609Z,84.89
2018-04-01T08:55:57.605Z,85.47
2018-04-01T08:56:57.347Z,84.23
2018-04-01T08:57:57.594Z,84.13
2018-04-01T08:58:57.357Z,84.52
2018-04-01T08:59:57.353Z,85.08
2018-04-01T09:00:57.589Z,85.37
2018-04-01T09:01:57.576Z,85.37
2018-04-01T09:02:57.585Z,85.66
2018-04-01T09:03:57.574Z,85.08
2018-04-01T09:04:57.567Z,83.94
2018-04-01T09:05:57.562Z,82.61
2018-04-01T09:06:57.317Z,83.28
2018-04-01T09:07:57.582Z,84.33
2018-04-01T09:08:57.559Z,84.52
2018-04-01T09:09:57.306Z,83.65
2018-04-01T09:10:57.343Z,82.65
2018-04-01T09:11:57.306Z,82.04
2018-04-01T09:12:57.540Z,81.51
2018-04-01T09:13:57.536Z,81.13
2018-04-01T09:14:57.288Z,80.84
2018-04-01T09:15:57.293Z,78.56
2018-04-01T09:16:57.567Z,78.27
2018-04-01T09:17:57.520Z,79.03
2018-04-01T09:18:57.275Z,79.41
2018-04-01T09:19:57.511Z,80.65
2018-04-01T09:20:57.508Z,80.46
2018-04-01T09:21:57.841Z,80.55
2018-04-01T09:22:57.506Z,79.99
2018-04-01T09:23:57.503Z,79.17
2018-04-01T09:24:57.506Z,79.13
2018-04-01T09:25:57.495Z,79.8
2018-04-01T09:26:57.251Z,81.03
2018-04-01T09:27:57.494Z,82.37
2018-04-01T09:28:57.273Z,82.75
2018-04-01T09:29:57.483Z,82.18
2018-04-01T09:30:57.481Z,81.79
2018-04-01T09:31:57.232Z,81.65
2018-04-01T09:32:57.491Z,81.36
2018-04-01T09:33:57.480Z,79.83
2018-04-01T09:34:57.257Z,77.83
2018-04-01T09:35:57.511Z,77.74
2018-04-01T09:36:57.305Z,77.07
2018-04-01T09:37:57.477Z,78.41
2018-04-01T09:38:57.487Z,79.36
2018-04-01T09:39:57.467Z,79.74
2018-04-01T09:40:57.465Z,78.41
2018-04-01T09:41:57.201Z,78.69
2018-04-01T09:42:57.459Z,80.6
2018-04-01T09:43:57.450Z,78.41
2018-04-01T09:44:57.203Z,78.98
2018-04-01T09:45:57.453Z,79.36
2018-04-01T09:46:59.265Z,81.55
2018-04-01T09:47:57.446Z,81.21
2018-04-01T09:48:57.446Z,78.83
2018-04-01T09:49:57.532Z,77.3
2018-04-01T09:50:57.450Z,76.82
2018-04-01T09:51:57.441Z,75.78
2018-04-01T09:52:57.430Z,76.44
2018-04-01T09:53:57.176Z,76.5
2018-04-01T09:54:57.432Z,77.26
2018-04-01T09:55:57.166Z,77.55
2018-04-01T09:56:57.450Z,78.41
2018-04-01T09:57:57.429Z,79.07
2018-04-01T09:58:57.426Z,79.17
2018-04-01T09:59:57.164Z,77.45
2018-04-01T10:00:57.176Z,78.41
2018-04-01T10:01:57.416Z,77.59
2018-04-01T10:02:57.167Z,78.64
2018-04-01T10:03:57.441Z,77.01
2018-04-01T10:04:57.414Z,76.54
2018-04-01T10:05:57.413Z,75.59
2018-04-01T10:06:57.225Z,74.06
2018-04-01T10:07:57.404Z,74.16
2018-04-01T10:08:57.456Z,74.82
2018-04-01T10:09:57.455Z,73.52
2018-04-01T10:10:57.148Z,74.01
2018-04-01T10:11:57.401Z,73.14
2018-04-01T10:12:57.408Z,71.81
2018-04-01T10:13:57.165Z,71.62
2018-04-01T10:14:57.387Z,70.67
2018-04-01T10:15:57.420Z,69.81
2018-04-01T10:16:57.396Z,70.57
2018-04-01T10:17:57.126Z,71.87
2018-04-01T10:18:57.449Z,71.58
2018-04-01T10:19:57.122Z,71.39
2018-04-01T10:20:57.121Z,70.86
2018-04-01T10:21:57.374Z,70.44
2018-04-01T10:22:58.177Z,70.57
2018-04-01T10:54:04.544Z,70.25
2018-04-01T10:55:04.885Z,69.1
2018-04-01T10:56:04.777Z,68.53
2018-04-01T10:57:04.770Z,69.01
2018-04-01T10:58:04.761Z,69.2
2018-04-01T10:59:04.759Z,69.35
2018-04-01T11:00:04.757Z,69.17
2018-04-01T11:01:04.493Z,69.35
2018-04-01T11:02:04.485Z,69.17
2018-04-01T11:03:04.731Z,68.98
2018-04-01T11:04:04.776Z,68.88
2018-04-01T11:05:04.755Z,70.31
2018-04-01T11:06:04.475Z,70.65
2018-04-01T11:07:04.464Z,71.03
2018-04-01T11:08:04.710Z,73.03
2018-04-01T11:09:04.782Z,72.94
2018-04-01T11:10:04.700Z,77.22
2018-04-01T11:11:04.454Z,82.9
2018-04-01T11:12:04.446Z,85.24
2018-04-01T11:13:04.695Z,88.23
2018-04-01T11:14:05.156Z,91.89
2018-04-01T11:15:04.680Z,94.98
2018-04-01T11:16:04.695Z,97.07
2018-04-01T11:17:04.428Z,99.87
2018-04-01T11:18:04.438Z,99.99
2018-04-01T11:19:04.994Z,98.73
2018-04-01T11:20:04.709Z,99.21
2018-04-01T11:21:04.643Z,99.97
2018-04-01T11:22:04.646Z,99.4
2018-04-01T11:23:04.625Z,99.99
2018-04-01T11:24:04.384Z,97.64
2018-04-01T11:25:04.613Z,95.65
2018-04-01T11:26:04.690Z,95.08
2018-04-01T11:27:04.604Z,94.6
2018-04-01T11:28:04.597Z,96.26
2018-04-01T11:29:04.350Z,93.99
2018-04-01T11:30:04.334Z,93.04
2018-04-01T11:31:04.329Z,94.56
2018-04-01T11:32:04.575Z,92.13
2018-04-01T11:33:04.570Z,90.23
2018-04-01T11:34:04.563Z,90.33
2018-04-01T11:35:04.560Z,88.9
2018-04-01T11:36:04.552Z,87.9
2018-04-01T11:37:04.555Z,86.66
2018-04-01T11:38:04.543Z,85.61
2018-04-01T11:39:04.534Z,85.24
2018-04-01T11:40:04.282Z,84.47
2018-04-01T11:41:04.274Z,83.42
2018-04-01T11:42:04.525Z,83.71
2018-04-01T11:43:04.269Z,84.95
2018-04-01T11:44:04.515Z,85.71
2018-04-01T11:45:04.506Z,85.42
2018-04-01T11:46:04.515Z,84.28
2018-04-01T11:47:04.500Z,82.09
2018-04-01T11:48:04.500Z,82.19
2018-04-01T11:49:04.502Z,83.23
2018-04-01T11:50:04.489Z,82.95
2018-04-01T11:51:04.543Z,81.62
2018-04-01T11:52:04.224Z,81.9
2018-04-01T11:53:04.307Z,80.95
2018-04-01T11:54:04.472Z,80.9
2018-04-01T11:55:04.271Z,80.19
2018-04-01T11:56:04.212Z,80.04
2018-04-01T11:57:04.204Z,80.95
2018-04-01T11:58:04.204Z,81.52
2018-04-01T11:59:04.456Z,81.52
2018-04-01T12:00:04.203Z,80.76
2018-04-01T12:01:04.188Z,80.8
2018-04-01T12:02:04.438Z,79.75
2018-04-01T12:03:04.438Z,80.76
2018-04-01T12:04:04.434Z,80.99
2018-04-01T12:05:04.430Z,79.28
2018-04-01T12:06:04.168Z,79.38
2018-04-01T12:07:04.419Z,78.23
2018-04-01T12:08:04.427Z,77.19
2018-04-01T12:09:04.500Z,76.52
2018-04-01T12:10:05.510Z,77.37
2018-04-01T12:11:04.152Z,77.47
2018-04-01T12:12:04.402Z,78.04
2018-04-01T12:13:04.146Z,77.66
2018-04-01T12:14:04.410Z,76.33
2018-04-01T12:15:04.839Z,76.23
2018-04-01T12:16:04.382Z,77.28
2018-04-01T12:17:04.128Z,78.37
2018-04-01T12:18:04.125Z,75.04
2018-04-01T12:19:04.396Z,75.23
2018-04-01T12:20:04.131Z,74.56
2018-04-01T12:21:04.370Z,74.27
2018-04-01T12:22:04.110Z,74.84
2018-04-01T12:23:04.365Z,74.75
2018-04-01T12:24:04.377Z,73.99
2018-04-01T12:25:04.106Z,73.89
2018-04-01T12:26:04.350Z,73.99
2018-04-01T12:27:04.354Z,73.38
2018-04-01T12:28:04.343Z,72.81
2018-04-01T12:29:04.344Z,73.85
2018-04-01T12:30:04.085Z,74.04
2018-04-01T12:31:04.344Z,75.99
2018-04-01T12:32:04.076Z,73.03
2018-04-01T12:33:04.077Z,73.13
2018-04-01T12:34:04.080Z,73.99
2018-04-01T12:35:04.320Z,73.03
2018-04-01T12:36:04.317Z,72.94
2018-04-01T12:37:04.064Z,74.27
2018-04-01T12:38:04.316Z,71.51
2018-04-01T12:39:04.307Z,71.42
2018-04-01T12:40:04.304Z,72.27
2018-04-01T12:41:04.343Z,71.61
2018-04-01T12:42:04.305Z,71.8
2018-04-01T12:43:04.300Z,71.7
2018-04-01T12:44:04.296Z,71.8
2018-04-01T12:45:04.049Z,71.89
2018-04-01T12:46:04.295Z,71.98
2018-04-01T12:47:04.035Z,72.17
2018-04-01T12:48:04.026Z,72.08
2018-04-01T12:49:04.282Z,72.37
2018-04-01T12:50:04.025Z,71.32
2018-04-01T12:51:04.278Z,71.7
2018-04-01T12:52:04.268Z,72.46
2018-04-01T12:53:04.009Z,72.56
2018-04-01T12:54:04.271Z,70.84
2018-04-01T12:55:04.002Z,71.22
2018-04-01T12:56:04.152Z,71.61
2018-04-01T12:57:04.004Z,70.94
2018-04-01T12:58:04.267Z,70.84
2018-04-01T12:59:04.007Z,69.42
2018-04-01T13:00:04.249Z,70.47
2018-04-01T13:01:04.237Z,70.65
2018-04-01T13:02:04.241Z,70.52
2018-04-01T13:03:04.236Z,70.62
2018-04-01T13:04:03.975Z,70.62
2018-04-01T13:05:04.230Z,70.9
2018-04-01T13:06:04.225Z,71
2018-04-01T13:07:04.222Z,70.65
2018-04-01T13:08:04.217Z,69.51
2018-04-01T13:09:03.964Z,69.32
2018-04-01T13:10:04.215Z,69.13
2018-04-01T13:11:06.005Z,69.32
2018-04-01T13:12:04.204Z,69.32
2018-04-01T13:13:04.200Z,68.84
2018-04-01T13:14:04.198Z,69.42
2018-04-01T13:15:04.246Z,69.76
2018-04-01T13:16:03.932Z,70.37
2018-04-01T13:17:04.190Z,71.19
2018-04-01T13:18:04.181Z,73.28
2018-04-01T13:19:04.181Z,75.95
2018-04-01T13:20:03.920Z,79.19
2018-04-01T13:21:04.168Z,82.19
2018-04-01T13:22:04.174Z,84.43
2018-04-01T13:23:04.159Z,86.8
2018-04-01T13:24:04.160Z,88.47
2018-04-01T13:25:04.187Z,90.09
2018-04-01T13:26:03.961Z,90.47
2018-04-01T13:27:04.144Z,90.37
2018-04-01T13:28:04.127Z,90.9
2018-04-01T13:29:04.123Z,91.99
2018-04-01T13:30:04.123Z,89.67
2018-04-01T13:31:03.877Z,89.95
2018-04-01T13:32:03.854Z,90.33
2018-04-01T13:33:04.102Z,91.13
2018-04-01T13:34:04.101Z,91.09